TimeMST,TemperatureF,Dew PointF,Humidity,Sea Level PressureIn,VisibilityMPH,Wind Direction,Wind SpeedMPH,Gust SpeedMPH,PrecipitationIn,Events,Conditions,WindDirDegrees,DateUTC
12:15 AM,42.1,38.5,87,29.85,10.0,North,3.5,-,N/A,,Scattered Clouds,10,2013-10-29 07:15:00
12:35 AM,41.5,38.5,89,29.86,10.0,WNW,3.5,-,N/A,,Mostly Cloudy,290,2013-10-29 07:35:00
12:55 AM,40.8,39.2,94,29.87,10.0,West,3.5,-,N/A,,Mostly Cloudy,280,2013-10-29 07:55:00
1:15 AM,41.2,39.6,94,29.87,10.0,WNW,6.9,-,N/A,,Overcast,290,2013-10-29 08:15:00
1:35 AM,41.5,39.4,92,29.87,10.0,NW,6.9,-,N/A,,Mostly Cloudy,310,2013-10-29 08:35:00
1:55 AM,40.5,39.0,95,29.87,10.0,NNW,5.8,-,N/A,,Scattered Clouds,330,2013-10-29 08:55:00
2:15 AM,40.3,39.0,95,29.87,10.0,NNW,3.5,-,N/A,,Mostly Cloudy,340,2013-10-29 09:15:00
3:15 AM,41.0,39.6,95,29.87,10.0,Calm,Calm,-,N/A,,Overcast,0,2013-10-29 10:15:00
6:55 AM,36.9,36.7,99,29.93,10.0,SE,3.5,-,N/A,,Scattered Clouds,140,2013-10-29 13:55:00
7:35 AM,36.9,36.7,99,29.94,10.0,Calm,Calm,-,N/A,,Scattered Clouds,0,2013-10-29 14:35:00
7:55 AM,37.2,37.2,100,29.94,10.0,Calm,Calm,-,N/A,,Scattered Clouds,0,2013-10-29 14:55:00
8:15 AM,39.6,39.0,98,29.96,10.0,Calm,Calm,-,N/A,,Mostly Cloudy,0,2013-10-29 15:15:00
8:35 AM,41.0,39.9,96,29.96,10.0,Calm,Calm,-,N/A,,Overcast,0,2013-10-29 15:35:00
8:55 AM,42.8,40.6,92,29.96,10.0,Calm,Calm,-,N/A,,Overcast,0,2013-10-29 15:55:00
9:15 AM,45.0,39.2,80,29.96,10.0,Calm,Calm,-,N/A,,Scattered Clouds,0,2013-10-29 16:15:00
9:35 AM,46.4,38.5,74,29.96,10.0,Calm,Calm,-,N/A,,Clear,0,2013-10-29 16:35:00
9:55 AM,48.0,37.8,68,29.96,10.0,South,4.6,-,N/A,,Scattered Clouds,190,2013-10-29 16:55:00
10:15 AM,49.3,37.9,65,29.96,10.0,Calm,Calm,-,N/A,,Mostly Cloudy,0,2013-10-29 17:15:00
10:35 AM,49.3,36.9,62,29.96,10.0,WSW,5.8,-,N/A,,Mostly Cloudy,250,2013-10-29 17:35:00
10:55 AM,47.7,36.7,66,29.96,10.0,SSW,5.8,-,N/A,,Overcast,210,2013-10-29 17:55:00
11:15 AM,47.5,36.1,65,29.96,10.0,SW,6.9,-,N/A,Rain,Light Rain,220,2013-10-29 18:15:00
11:35 AM,48.7,35.6,60,29.95,10.0,WSW,4.6,-,N/A,,Overcast,250,2013-10-29 18:35:00
11:55 AM,49.3,35.4,59,29.94,10.0,West,6.9,-,N/A,,Overcast,280,2013-10-29 18:55:00
12:15 PM,49.3,35.2,58,29.93,10.0,WNW,6.9,-,N/A,,Overcast,300,2013-10-29 19:15:00
12:35 PM,50.0,34.2,55,29.92,10.0,SW,9.2,-,N/A,,Overcast,220,2013-10-29 19:35:00
12:55 PM,50.7,33.1,51,29.91,10.0,West,9.2,-,N/A,,Mostly Cloudy,260,2013-10-29 19:55:00
1:15 PM,51.8,34.3,51,29.91,10.0,West,10.4,20.7,N/A,,Mostly Cloudy,260,2013-10-29 20:15:00
1:35 PM,51.4,34.5,52,29.91,10.0,WSW,9.2,-,N/A,,Overcast,250,2013-10-29 20:35:00
1:55 PM,49.8,34.2,55,29.90,10.0,West,3.5,-,N/A,,Overcast,260,2013-10-29 20:55:00
2:15 PM,48.4,34.3,58,29.92,10.0,SSW,16.1,-,N/A,,Overcast,200,2013-10-29 21:15:00
2:35 PM,46.0,34.0,63,29.91,10.0,South,9.2,26.5,N/A,Rain,Light Rain,170,2013-10-29 21:35:00
2:55 PM,44.6,35.6,71,29.90,10.0,East,4.6,-,N/A,Rain,Light Rain,100,2013-10-29 21:55:00
3:15 PM,46.4,36.5,68,29.90,10.0,Calm,Calm,-,N/A,,Overcast,0,2013-10-29 22:15:00
3:35 PM,48.0,34.9,60,29.90,10.0,Calm,Calm,-,N/A,,Mostly Cloudy,0,2013-10-29 22:35:00
3:55 PM,48.4,34.5,59,29.90,10.0,Calm,Calm,-,N/A,,Mostly Cloudy,0,2013-10-29 22:55:00
4:15 PM,49.8,33.8,54,29.90,10.0,North,5.8,-,N/A,,Scattered Clouds,360,2013-10-29 23:15:00
4:35 PM,49.6,34.2,55,29.90,10.0,NNW,4.6,-,N/A,,Scattered Clouds,340,2013-10-29 23:35:00
4:55 PM,49.3,34.5,57,29.91,10.0,NW,9.2,-,N/A,,Scattered Clouds,310,2013-10-29 23:55:00
5:15 PM,48.2,34.7,60,29.92,10.0,WNW,6.9,-,N/A,,Scattered Clouds,300,2013-10-30 00:15:00
5:35 PM,46.4,35.6,66,29.92,10.0,NNW,4.6,-,N/A,,Clear,330,2013-10-30 00:35:00
5:55 PM,44.6,36.1,72,29.92,10.0,North,5.8,-,N/A,,Clear,360,2013-10-30 00:55:00
6:15 PM,43.7,36.3,75,29.93,10.0,North,3.5,-,N/A,,Clear,10,2013-10-30 01:15:00
6:35 PM,43.2,35.6,75,29.94,10.0,NNE,3.5,-,N/A,,Scattered Clouds,20,2013-10-30 01:35:00
6:55 PM,42.3,35.6,77,29.94,10.0,Calm,Calm,-,N/A,,Scattered Clouds,0,2013-10-30 01:55:00
7:15 PM,41.2,36.3,83,29.96,10.0,Calm,Calm,-,N/A,,Mostly Cloudy,0,2013-10-30 02:15:00
7:35 PM,40.3,36.5,86,29.96,10.0,Calm,Calm,-,N/A,,Overcast,0,2013-10-30 02:35:00
7:55 PM,39.7,37.0,90,29.96,10.0,Calm,Calm,-,N/A,,Overcast,0,2013-10-30 02:55:00
8:15 PM,40.8,37.9,89,29.97,10.0,Calm,Calm,-,N/A,,Overcast,0,2013-10-30 03:15:00
8:35 PM,43.0,36.3,77,29.97,10.0,West,6.9,-,N/A,,Overcast,280,2013-10-30 03:35:00
8:55 PM,45.0,34.3,66,29.99,10.0,West,5.8,9.2,N/A,,Light Drizzle,270,2013-10-30 03:55:00
9:15 PM,43.9,35.8,73,29.99,10.0,NW,9.2,-,N/A,,Overcast,310,2013-10-30 04:15:00
9:35 PM,43.0,36.0,76,30.00,10.0,NNW,4.6,-,N/A,,Overcast,340,2013-10-30 04:35:00
9:55 PM,42.1,36.9,82,30.00,10.0,Calm,Calm,-,N/A,,Overcast,0,2013-10-30 04:55:00
10:15 PM,41.9,37.2,83,30.00,10.0,NW,5.8,-,N/A,Rain,Light Rain,310,2013-10-30 05:15:00
10:35 PM,41.5,37.0,84,30.00,10.0,Calm,Calm,-,N/A,,Scattered Clouds,0,2013-10-30 05:35:00
10:55 PM,40.6,37.0,87,30.00,10.0,NW,4.6,-,N/A,,Clear,320,2013-10-30 05:55:00
11:15 PM,40.3,37.0,88,30.00,10.0,NW,3.5,-,N/A,,Clear,320,2013-10-30 06:15:00
11:35 PM,39.9,37.4,91,30.00,10.0,NW,3.5,-,N/A,,Clear,320,2013-10-30 06:35:00
11:55 PM,40.1,37.4,90,30.00,10.0,Calm,Calm,-,N/A,,Scattered Clouds,0,2013-10-30 06:55:00